Time;durP1;ratioP1;P1;durP2;ratioP2;P2;SDS_P1;SDS_P2;PMS_P1;PMS_P2;Temp;Humidity;BMP_temperature;BMP_pressure;BME280_temperature;BME280_humidity;BME280_pressure;Samples;Min_cycle;Max_cycle;Signal;HPM_P1;HPM_P2
2023/07/20 00:01:22;;;;;;;3.30;0.88;;;14.70;99.90;;;;;;5086174;28;20127;-62
2023/07/20 00:03:54;;;;;;;1.27;0.70;;;14.70;99.90;;;;;;5092125;28;20051;-63
2023/07/20 00:06:21;;;;;;;0.75;0.50;;;14.70;99.90;;;;;;5111120;28;20430;-62
2023/07/20 00:08:47;;;;;;;1.10;0.68;;;14.70;99.90;;;;;;5092820;28;20050;-63
2023/07/20 00:11:13;;;;;;;1.48;0.55;;;14.70;99.90;;;;;;5092433;28;20035;-63
2023/07/20 00:13:39;;;;;;;2.38;0.85;;;14.80;99.90;;;;;;5092661;28;20039;-63
2023/07/20 00:16:05;;;;;;;1.10;0.50;;;14.80;99.90;;;;;;5060669;28;20131;-63
2023/07/20 00:18:31;;;;;;;1.42;0.60;;;14.70;99.90;;;;;;5053422;28;20093;-63
2023/07/20 00:21:06;;;;;;;1.88;0.77;;;14.80;99.90;;;;;;5072374;28;20126;-63
2023/07/20 00:23:32;;;;;;;0.82;0.50;;;14.70;99.90;;;;;;5090584;28;20051;-63
2023/07/20 00:25:58;;;;;;;1.65;0.80;;;14.70;99.90;;;;;;5071580;28;20048;-63
2023/07/20 00:28:24;;;;;;;0.88;0.50;;;14.70;99.90;;;;;;5072267;28;20388;-63
2023/07/20 00:30:50;;;;;;;0.80;0.50;;;14.60;99.90;;;;;;5072128;28;20043;-63
2023/07/20 00:33:17;;;;;;;1.60;0.70;;;14.60;99.90;;;;;;5089563;28;20032;-63
2023/07/20 00:35:44;;;;;;;1.33;0.65;;;14.50;99.90;;;;;;5072260;28;20055;-63
2023/07/20 00:38:10;;;;;;;1.02;0.50;;;14.50;99.90;;;;;;5039005;28;20574;-63
2023/07/20 00:40:40;;;;;;;1.08;0.50;;;14.40;99.90;;;;;;5069517;28;20050;-63
2023/07/20 00:43:05;;;;;;;1.48;0.50;;;14.30;99.90;;;;;;5070084;28;20127;-63
2023/07/20 00:45:33;;;;;;;1.17;0.57;;;14.20;99.90;;;;;;5035351;28;20127;-63
2023/07/20 00:48:00;;;;;;;0.43;0.32;;;14.20;99.90;;;;;;5051721;28;20033;-63
2023/07/20 00:50:26;;;;;;;1.33;0.65;;;14.10;99.90;;;;;;5052004;28;20380;-63
2023/07/20 00:52:52;;;;;;;1.02;0.63;;;14.00;99.90;;;;;;5069375;28;20495;-62
2023/07/20 00:55:19;;;;;;;0.77;0.43;;;13.90;99.90;;;;;;5070026;28;20044;-63
2023/07/20 00:57:45;;;;;;;4.45;0.47;;;13.80;99.90;;;;;;5052190;28;20377;-63
2023/07/20 01:00:12;;;;;;;0.88;0.50;;;13.80;99.90;;;;;;5077076;28;20035;-63
2023/07/20 01:02:38;;;;;;;0.52;0.30;;;13.70;99.90;;;;;;5092489;28;20046;-62
2023/07/20 01:05:06;;;;;;;1.08;0.43;;;13.60;99.90;;;;;;5075470;28;20040;-62
2023/07/20 01:07:39;;;;;;;1.50;0.50;;;13.50;99.90;;;;;;5091902;28;20040;-62
2023/07/20 01:10:17;;;;;;;2.22;0.30;;;13.50;99.90;;;;;;5092069;28;20054;-62
2023/07/20 01:12:47;;;;;;;3.95;0.45;;;13.40;99.90;;;;;;5053761;28;20571;-62
2023/07/20 01:15:14;;;;;;;2.58;0.52;;;13.30;99.90;;;;;;5074895;28;20415;-62
2023/07/20 01:17:40;;;;;;;2.72;0.30;;;13.30;99.90;;;;;;5071974;28;20059;-62
2023/07/20 01:20:14;;;;;;;6.50;0.40;;;13.20;99.90;;;;;;5075695;28;20039;-62
2023/07/20 01:23:07;;;;;;;3.35;0.55;;;13.10;99.90;;;;;;5093060;28;20065;-62
2023/07/20 01:25:33;;;;;;;3.10;0.30;;;13.00;99.90;;;;;;5075143;28;20136;-62
2023/07/20 01:28:27;;;;;;;3.25;0.20;;;12.90;99.90;;;;;;5074848;28;20123;-62
2023/07/20 01:31:24;;;;;;;2.00;0.30;;;12.80;99.90;;;;;;5075389;28;20072;-62
2023/07/20 01:33:58;;;;;;;0.10;0.10;;;12.70;99.90;;;;;;5081790;28;20044;-62
2023/07/20 01:36:28;;;;;;;3.20;0.40;;;12.50;99.90;;;;;;5054857;28;20044;-62
2023/07/20 01:38:56;;;;;;;0.75;0.32;;;12.40;99.90;;;;;;5055308;28;20102;-62
2023/07/20 01:41:22;;;;;;;0.20;0.20;;;12.40;99.90;;;;;;5055424;28;20048;-62
2023/07/20 01:43:48;;;;;;;1.98;0.50;;;12.30;99.90;;;;;;5072440;28;20075;-62
2023/07/20 01:46:14;;;;;;;0.98;0.52;;;12.20;99.90;;;;;;5038381;28;20032;-62
2023/07/20 01:48:39;;;;;;;4.15;0.40;;;12.20;99.90;;;;;;5054394;28;20040;-62
2023/07/20 01:51:05;;;;;;;5.28;0.50;;;12.10;99.90;;;;;;5055048;28;20127;-62
2023/07/20 01:53:31;;;;;;;0.40;0.30;;;12.10;99.90;;;;;;5072920;28;20040;-62
2023/07/20 01:55:57;;;;;;;1.48;0.38;;;12.10;99.90;;;;;;5072183;28;20044;-62
2023/07/20 01:58:24;;;;;;;0.38;0.20;;;12.10;99.90;;;;;;5055153;28;20093;-62
2023/07/20 02:00:50;;;;;;;0.25;0.22;;;12.10;99.90;;;;;;5091375;28;20071;-62
2023/07/20 02:03:16;;;;;;;3.28;0.30;;;12.00;99.90;;;;;;5094653;28;20077;-62
2023/07/20 02:05:45;;;;;;;0.10;0.10;;;11.90;99.90;;;;;;5095029;28;20127;-62
2023/07/20 02:08:11;;;;;;;0.20;0.20;;;11.90;99.90;;;;;;5070072;28;20036;-63
2023/07/20 02:10:36;;;;;;;0.10;0.10;;;11.80;99.90;;;;;;5037613;28;20918;-62
2023/07/20 02:13:02;;;;;;;0.20;0.20;;;11.80;99.90;;;;;;5091168;28;20497;-63
2023/07/20 02:15:28;;;;;;;4.20;0.65;;;11.70;99.90;;;;;;5074608;28;20059;-62
2023/07/20 02:17:54;;;;;;;0.20;0.20;;;11.70;99.90;;;;;;5092306;28;20035;-63
2023/07/20 02:20:20;;;;;;;0.43;0.20;;;11.70;99.90;;;;;;5092864;28;20036;-63
2023/07/20 02:22:46;;;;;;;1.48;0.15;;;11.60;99.90;;;;;;5057678;28;20050;-63
2023/07/20 02:25:12;;;;;;;1.75;0.50;;;11.60;99.90;;;;;;5091733;28;20086;-63
2023/07/20 02:27:41;;;;;;;0.10;0.10;;;11.50;99.90;;;;;;5092417;28;20052;-63
2023/07/20 02:30:09;;;;;;;1.35;0.25;;;11.50;99.90;;;;;;5061227;28;20082;-63
2023/07/20 02:32:35;;;;;;;1.45;0.10;;;11.50;99.90;;;;;;5053828;28;20427;-63
2023/07/20 02:35:00;;;;;;;0.08;0.08;;;11.50;99.90;;;;;;5054549;28;20048;-63
2023/07/20 02:37:26;;;;;;;0.20;0.10;;;11.40;99.90;;;;;;5054417;28;20147;-63
2023/07/20 02:39:52;;;;;;;0.10;0.10;;;11.40;99.90;;;;;;5053466;28;20041;-63
2023/07/20 02:42:19;;;;;;;2.83;0.28;;;11.30;99.90;;;;;;5054184;28;20052;-63
2023/07/20 02:44:44;;;;;;;0.25;0.20;;;11.30;99.90;;;;;;5053604;28;20048;-63
2023/07/20 02:47:10;;;;;;;0.32;0.30;;;11.20;99.90;;;;;;5054221;28;20098;-63
2023/07/20 02:49:36;;;;;;;0.30;0.20;;;11.20;99.90;;;;;;5054004;28;20500;-63
2023/07/20 02:52:02;;;;;;;0.73;0.35;;;11.20;99.90;;;;;;5036745;28;20039;-63
2023/07/20 02:54:30;;;;;;;0.57;0.35;;;11.20;99.90;;;;;;5071751;28;20128;-64
2023/07/20 02:56:56;;;;;;;0.30;0.20;;;11.20;99.90;;;;;;5054117;28;20045;-63
2023/07/20 02:59:22;;;;;;;1.52;0.65;;;11.20;99.90;;;;;;5077946;28;20042;-64
2023/07/20 03:01:48;;;;;;;2.08;0.77;;;11.20;99.90;;;;;;5090983;28;20673;-64
2023/07/20 03:04:14;;;;;;;0.73;0.47;;;11.10;99.90;;;;;;5071981;28;20580;-64
2023/07/20 03:06:40;;;;;;;0.10;0.10;;;11.10;99.90;;;;;;5053080;28;20123;-64
2023/07/20 03:09:06;;;;;;;1.45;0.30;;;11.10;99.90;;;;;;5070594;28;20114;-64
2023/07/20 03:11:33;;;;;;;0.10;0.10;;;11.10;99.90;;;;;;5073569;28;20056;-64
2023/07/20 03:13:59;;;;;;;0.25;0.20;;;11.10;99.90;;;;;;5073184;28;20047;-64
2023/07/20 03:16:26;;;;;;;5.53;0.50;;;11.00;99.90;;;;;;5073804;28;20384;-64
2023/07/20 03:18:52;;;;;;;3.20;0.35;;;11.00;99.90;;;;;;5073450;28;20048;-64
2023/07/20 03:21:18;;;;;;;0.15;0.13;;;11.00;99.90;;;;;;5072762;28;20044;-64
2023/07/20 03:23:44;;;;;;;1.35;0.40;;;10.90;99.90;;;;;;5091348;28;20054;-65
2023/07/20 03:26:10;;;;;;;0.45;0.30;;;10.90;99.90;;;;;;5080557;28;20124;-64
2023/07/20 03:28:37;;;;;;;4.10;0.20;;;10.80;99.90;;;;;;5070287;28;20041;-65
2023/07/20 03:31:03;;;;;;;0.47;0.20;;;10.80;99.90;;;;;;5053461;28;20080;-65
2023/07/20 03:33:30;;;;;;;4.97;0.40;;;10.80;99.90;;;;;;5053031;28;20476;-64
2023/07/20 03:35:56;;;;;;;4.95;0.25;;;10.80;99.90;;;;;;5052795;28;20040;-65
2023/07/20 03:38:24;;;;;;;8.60;0.50;;;10.80;99.90;;;;;;5036422;28;20540;-65
2023/07/20 03:40:54;;;;;;;0.65;0.40;;;10.80;99.90;;;;;;5051939;28;20041;-65
2023/07/20 03:43:21;;;;;;;0.70;0.25;;;10.80;99.90;;;;;;5070940;28;20044;-65
2023/07/20 03:45:48;;;;;;;1.15;0.70;;;10.70;99.90;;;;;;5070688;28;20040;-65
2023/07/20 03:48:18;;;;;;;0.82;0.30;;;10.70;99.90;;;;;;5052282;28;20041;-65
2023/07/20 03:50:45;;;;;;;0.65;0.45;;;10.70;99.90;;;;;;5052979;28;20079;-65
2023/07/20 03:53:12;;;;;;;0.60;0.32;;;10.70;99.90;;;;;;5052824;28;20055;-65
2023/07/20 03:55:40;;;;;;;1.98;0.60;;;10.70;99.90;;;;;;5052374;28;20075;-65
2023/07/20 03:58:06;;;;;;;1.17;0.70;;;10.70;99.90;;;;;;5052758;28;20044;-65
2023/07/20 04:01:04;;;;;;;4.60;0.57;;;10.70;99.90;;;;;;5075505;28;20404;-65
2023/07/20 04:03:33;;;;;;;0.55;0.32;;;10.80;99.90;;;;;;5054007;28;20087;-66
2023/07/20 04:05:59;;;;;;;1.30;0.43;;;10.70;99.90;;;;;;5055822;28;20079;-66
2023/07/20 04:08:25;;;;;;;0.68;0.43;;;10.80;99.90;;;;;;5072737;28;20032;-66
2023/07/20 04:10:50;;;;;;;0.82;0.40;;;10.80;99.90;;;;;;5071971;28;20058;-66
2023/07/20 04:13:16;;;;;;;2.35;0.85;;;10.80;99.90;;;;;;5056102;28;20135;-66
2023/07/20 04:15:42;;;;;;;0.82;0.45;;;10.80;99.90;;;;;;5055032;28;20044;-66
2023/07/20 04:18:08;;;;;;;1.75;0.60;;;10.80;99.90;;;;;;5072287;28;20040;-66
2023/07/20 04:20:34;;;;;;;0.90;0.40;;;10.90;99.90;;;;;;5072259;28;20040;-66
2023/07/20 04:23:00;;;;;;;1.48;0.65;;;10.90;99.90;;;;;;5056832;28;20044;-66
2023/07/20 04:25:26;;;;;;;3.95;0.52;;;10.90;99.90;;;;;;5070032;28;20052;-66
2023/07/20 04:27:53;;;;;;;0.90;0.63;;;10.90;99.90;;;;;;5052390;28;20573;-66
2023/07/20 04:30:22;;;;;;;1.38;0.50;;;11.00;99.90;;;;;;5035250;28;20033;-66
2023/07/20 04:32:49;;;;;;;0.95;0.68;;;11.00;99.90;;;;;;5052333;28;20040;-66
2023/07/20 04:35:48;;;;;;;0.77;0.35;;;11.10;99.90;;;;;;5070247;28;20080;-66
2023/07/20 04:38:17;;;;;;;1.65;0.65;;;11.20;99.90;;;;;;5051729;28;20037;-66
2023/07/20 04:40:48;;;;;;;3.57;0.77;;;11.20;99.90;;;;;;5052478;28;20048;-66
2023/07/20 04:43:16;;;;;;;2.40;0.80;;;11.20;99.90;;;;;;5052248;28;20123;-66
2023/07/20 04:45:41;;;;;;;1.55;0.70;;;11.30;99.90;;;;;;5069503;28;20040;-65
2023/07/20 04:48:12;;;;;;;1.00;0.60;;;11.30;99.90;;;;;;5070138;28;20131;-65
2023/07/20 04:50:40;;;;;;;1.58;0.70;;;11.40;99.90;;;;;;5051480;28;20051;-65
2023/07/20 04:53:06;;;;;;;1.35;0.75;;;11.40;99.90;;;;;;5052705;28;20068;-65
2023/07/20 04:55:33;;;;;;;2.42;0.77;;;11.50;99.90;;;;;;5057037;28;20080;-65
2023/07/20 04:58:01;;;;;;;1.25;0.65;;;11.60;99.90;;;;;;5075623;28;20044;-65
2023/07/20 05:00:27;;;;;;;2.10;1.00;;;11.60;99.90;;;;;;5075411;28;20079;-65
2023/07/20 05:02:52;;;;;;;2.60;0.90;;;11.80;99.90;;;;;;5039361;28;20457;-64
2023/07/20 05:05:19;;;;;;;2.28;1.00;;;11.90;99.90;;;;;;5055597;28;20045;-64
2023/07/20 05:07:44;;;;;;;1.55;1.00;;;12.00;99.90;;;;;;5039452;28;20036;-64
2023/07/20 05:10:11;;;;;;;1.73;1.00;;;12.20;99.90;;;;;;5055850;28;20495;-64
2023/07/20 05:12:37;;;;;;;2.50;1.10;;;12.40;99.90;;;;;;5073108;28;20124;-64
2023/07/20 05:15:03;;;;;;;2.78;1.20;;;12.50;99.90;;;;;;5078721;28;20111;-64
2023/07/20 05:17:29;;;;;;;2.47;1.23;;;12.70;99.90;;;;;;5058529;28;20066;-64
2023/07/20 05:19:55;;;;;;;1.92;0.90;;;12.80;99.90;;;;;;5073107;28;20043;-63
2023/07/20 05:22:21;;;;;;;2.90;1.33;;;13.00;99.90;;;;;;5075639;28;20127;-63
2023/07/20 05:24:47;;;;;;;1.65;0.82;;;13.20;99.90;;;;;;5075447;28;20126;-63
2023/07/20 05:27:12;;;;;;;1.52;0.93;;;13.40;99.90;;;;;;5074687;28;20050;-63
2023/07/20 05:29:44;;;;;;;3.08;1.40;;;13.60;99.90;;;;;;5093658;28;20691;-63
2023/07/20 05:32:10;;;;;;;2.05;0.90;;;13.60;99.90;;;;;;5075390;28;20497;-62
2023/07/20 05:34:36;;;;;;;3.85;1.45;;;13.80;99.90;;;;;;5074876;28;20040;-62
2023/07/20 05:37:02;;;;;;;1.60;0.73;;;13.90;99.90;;;;;;5075141;28;20036;-62
2023/07/20 05:39:27;;;;;;;1.42;0.85;;;13.90;99.90;;;;;;5075217;28;20123;-62
2023/07/20 05:41:53;;;;;;;5.57;1.20;;;14.00;99.90;;;;;;5074681;28;20040;-62
2023/07/20 05:44:19;;;;;;;0.73;0.50;;;14.10;99.90;;;;;;5075450;28;20097;-62
2023/07/20 05:46:45;;;;;;;1.33;0.85;;;14.20;99.90;;;;;;5074460;28;20545;-62
2023/07/20 05:49:11;;;;;;;2.15;0.90;;;14.30;99.90;;;;;;5093222;28;20028;-62
2023/07/20 05:51:36;;;;;;;1.85;0.88;;;14.40;99.90;;;;;;5075185;28;20047;-62
2023/07/20 05:54:02;;;;;;;1.05;0.68;;;14.50;99.90;;;;;;5074018;28;20055;-62
2023/07/20 05:56:28;;;;;;;2.13;1.00;;;14.60;99.90;;;;;;5066150;28;20062;-63
2023/07/20 05:58:54;;;;;;;1.55;0.68;;;14.70;99.90;;;;;;5058224;28;20028;-63
2023/07/20 06:01:20;;;;;;;2.08;1.00;;;14.80;99.90;;;;;;5087564;28;20507;-63
2023/07/20 06:03:45;;;;;;;1.17;0.70;;;14.90;99.90;;;;;;5087980;28;20040;-63
2023/07/20 06:06:12;;;;;;;1.27;0.60;;;15.00;99.90;;;;;;5061906;28;20044;-63
2023/07/20 06:08:38;;;;;;;2.85;1.13;;;15.20;99.90;;;;;;5074182;28;20435;-63
2023/07/20 06:11:04;;;;;;;0.63;0.45;;;15.30;99.90;;;;;;5093086;28;20051;-63
2023/07/20 06:13:30;;;;;;;1.00;0.70;;;15.40;99.90;;;;;;5074871;28;20473;-63
2023/07/20 06:15:55;;;;;;;1.10;0.50;;;15.50;99.90;;;;;;5092404;28;20043;-62
2023/07/20 06:18:23;;;;;;;1.27;0.50;;;15.70;99.90;;;;;;5057957;28;20036;-63
2023/07/20 06:20:52;;;;;;;0.65;0.35;;;15.80;99.90;;;;;;5057074;28;20103;-64
2023/07/20 06:23:19;;;;;;;4.03;0.47;;;16.00;99.90;;;;;;5070547;28;20040;-63
2023/07/20 06:25:45;;;;;;;1.35;0.50;;;16.10;99.90;;;;;;5054088;28;20102;-64
2023/07/20 06:28:11;;;;;;;1.48;0.40;;;16.30;99.90;;;;;;5072027;28;20427;-63
2023/07/20 06:30:37;;;;;;;1.10;0.70;;;16.40;99.90;;;;;;5053236;28;20107;-64
2023/07/20 06:33:03;;;;;;;1.85;0.70;;;16.70;99.90;;;;;;5054286;28;20036;-63
2023/07/20 06:35:29;;;;;;;0.90;0.50;;;16.90;99.90;;;;;;5054188;28;20127;-64
2023/07/20 06:37:55;;;;;;;0.93;0.43;;;17.10;99.90;;;;;;5053735;28;20047;-64
2023/07/20 06:40:21;;;;;;;0.77;0.32;;;17.40;99.90;;;;;;5054506;28;20487;-64
2023/07/20 06:42:47;;;;;;;1.27;0.50;;;17.70;99.90;;;;;;5037150;28;20048;-64
2023/07/20 06:45:13;;;;;;;1.75;1.10;;;18.00;99.90;;;;;;5053602;28;20041;-64
2023/07/20 06:47:39;;;;;;;1.80;0.30;;;18.30;99.90;;;;;;5053933;28;20052;-64
2023/07/20 06:50:09;;;;;;;1.20;0.30;;;18.50;99.90;;;;;;5070082;28;20032;-64
2023/07/20 06:52:35;;;;;;;1.48;0.52;;;18.60;99.90;;;;;;5083292;28;20035;-64
2023/07/20 06:55:02;;;;;;;0.20;0.17;;;18.50;99.90;;;;;;5073754;28;20051;-64
2023/07/20 06:57:28;;;;;;;0.73;0.35;;;18.60;99.90;;;;;;5056505;28;20036;-64
2023/07/20 06:59:53;;;;;;;0.70;0.40;;;18.70;99.90;;;;;;5064473;28;20032;-64
2023/07/20 07:02:19;;;;;;;0.47;0.40;;;18.50;99.90;;;;;;5071550;28;20040;-63
2023/07/20 07:04:46;;;;;;;0.38;0.25;;;18.30;99.90;;;;;;5052879;28;20453;-64
2023/07/20 07:07:14;;;;;;;0.25;0.20;;;18.10;99.90;;;;;;5071637;28;20472;-63
2023/07/20 07:09:41;;;;;;;1.23;0.32;;;18.00;99.90;;;;;;5053379;28;20107;-64
2023/07/20 07:12:08;;;;;;;0.25;0.20;;;18.00;99.90;;;;;;5069952;28;20527;-64
2023/07/20 07:14:34;;;;;;;0.45;0.20;;;18.30;99.90;;;;;;5073505;28;20075;-66
2023/07/20 07:17:00;;;;;;;0.47;0.22;;;18.60;99.90;;;;;;5052989;28;20045;-64
2023/07/20 07:19:26;;;;;;;1.85;0.20;;;18.80;99.90;;;;;;5069018;28;20078;-64
2023/07/20 07:21:52;;;;;;;0.25;0.25;;;18.70;99.90;;;;;;5077123;28;20036;-64
2023/07/20 07:24:18;;;;;;;0.35;0.10;;;18.50;99.90;;;;;;5072770;28;20508;-64
2023/07/20 07:26:44;;;;;;;0.52;0.40;;;18.30;99.90;;;;;;5052176;28;20080;-64
2023/07/20 07:29:10;;;;;;;0.65;0.28;;;18.00;99.90;;;;;;5053307;28;20120;-64
2023/07/20 07:31:36;;;;;;;0.32;0.20;;;17.80;99.90;;;;;;5053023;28;20416;-64
2023/07/20 07:34:02;;;;;;;4.40;0.40;;;17.70;99.90;;;;;;5053223;28;20046;-65
2023/07/20 07:36:28;;;;;;;3.50;0.28;;;17.60;99.90;;;;;;5058138;28;20392;-64
2023/07/20 07:38:54;;;;;;;1.10;0.13;;;17.60;99.90;;;;;;5090637;28;20051;-64
2023/07/20 07:41:20;;;;;;;0.98;0.30;;;17.60;99.90;;;;;;5072605;28;20044;-64
2023/07/20 07:43:46;;;;;;;1.15;0.38;;;17.70;99.90;;;;;;5090616;28;20032;-64
2023/07/20 07:46:13;;;;;;;0.30;0.20;;;18.00;99.90;;;;;;5055495;28;20844;-64
2023/07/20 07:48:39;;;;;;;0.63;0.30;;;18.20;99.90;;;;;;5054223;28;20040;-63
2023/07/20 07:51:05;;;;;;;0.55;0.20;;;18.50;99.90;;;;;;5072741;28;20050;-63
2023/07/20 07:53:32;;;;;;;0.35;0.10;;;18.60;99.90;;;;;;5071819;28;20048;-64
2023/07/20 07:55:58;;;;;;;0.82;0.20;;;18.60;99.90;;;;;;5072739;28;20048;-62
2023/07/20 07:58:24;;;;;;;0.20;0.20;;;18.80;99.90;;;;;;5090890;28;20036;-63
2023/07/20 08:00:50;;;;;;;0.10;0.10;;;18.90;99.90;;;;;;5089327;28;20044;-62
2023/07/20 08:03:16;;;;;;;0.63;0.30;;;19.30;99.90;;;;;;5092728;28;20046;-62
2023/07/20 08:05:42;;;;;;;0.20;0.15;;;19.70;99.90;;;;;;5075852;28;20039;-62
2023/07/20 08:08:09;;;;;;;0.35;0.15;;;20.10;99.90;;;;;;5075698;28;20085;-63
2023/07/20 08:10:35;;;;;;;0.17;0.10;;;20.50;99.90;;;;;;5072439;28;20047;-61
2023/07/20 08:13:00;;;;;;;2.13;0.20;;;20.90;99.90;;;;;;5090569;28;20032;-62
2023/07/20 08:15:26;;;;;;;0.17;0.15;;;21.20;99.90;;;;;;5089938;28;20055;-60
2023/07/20 08:17:52;;;;;;;0.40;0.25;;;21.30;99.90;;;;;;5072414;28;20118;-60
2023/07/20 08:20:18;;;;;;;2.30;0.30;;;21.50;99.90;;;;;;5090606;28;20044;-61
2023/07/20 08:22:44;;;;;;;1.35;0.35;;;21.80;99.90;;;;;;5071767;28;20396;-61
2023/07/20 08:25:10;;;;;;;1.52;0.10;;;22.00;99.90;;;;;;5071922;28;20075;-62
2023/07/20 08:27:37;;;;;;;0.63;0.28;;;22.10;99.90;;;;;;5055590;28;20083;-63
2023/07/20 08:30:04;;;;;;;1.58;0.28;;;22.30;99.90;;;;;;5072248;28;20040;-62
2023/07/20 08:32:30;;;;;;;0.20;0.10;;;22.50;99.90;;;;;;5090518;28;20044;-63
2023/07/20 08:34:56;;;;;;;0.35;0.17;;;23.00;99.90;;;;;;5071897;28;20039;-63
2023/07/20 08:37:22;;;;;;;0.30;0.30;;;23.30;99.90;;;;;;5090304;28;20040;-63
2023/07/20 08:39:48;;;;;;;0.65;0.20;;;23.40;99.90;;;;;;5072179;28;20040;-63
2023/07/20 08:42:15;;;;;;;0.20;0.10;;;23.70;99.90;;;;;;5059520;28;20043;-63
2023/07/20 08:44:42;;;;;;;0.95;0.20;;;23.90;99.90;;;;;;5046748;28;20064;-63
2023/07/20 08:47:09;;;;;;;0.45;0.10;;;23.90;99.90;;;;;;5072431;28;20048;-63
2023/07/20 08:49:38;;;;;;;0.10;0.00;;;23.80;99.90;;;;;;5071649;28;20035;-64
2023/07/20 08:52:04;;;;;;;0.20;0.20;;;24.00;99.90;;;;;;5072260;28;20411;-63
2023/07/20 08:54:34;;;;;;;0.38;0.10;;;23.90;99.90;;;;;;5071914;28;20036;-62
2023/07/20 08:57:04;;;;;;;0.85;0.20;;;23.60;99.90;;;;;;5054965;28;20214;-63
2023/07/20 08:59:31;;;;;;;0.05;0.05;;;23.20;99.90;;;;;;5055325;28;20252;-63
2023/07/20 09:01:59;;;;;;;0.35;0.10;;;23.00;99.90;;;;;;5072226;28;20124;-64
2023/07/20 09:04:24;;;;;;;0.50;0.17;;;23.10;99.90;;;;;;5071189;28;20520;-63
2023/07/20 09:06:51;;;;;;;0.38;0.10;;;23.20;99.90;;;;;;5071850;28;20036;-63
2023/07/20 09:09:17;;;;;;;0.00;0.00;;;23.20;99.90;;;;;;5071690;28;20080;-63
2023/07/20 09:11:47;;;;;;;0.77;0.20;;;23.00;99.90;;;;;;5089393;28;20035;-63
2023/07/20 09:14:13;;;;;;;0.43;0.13;;;22.70;99.60;;;;;;5091960;28;20055;-64
2023/07/20 09:16:54;;;;;;;0.35;0.17;;;22.50;99.30;;;;;;5072974;28;20680;-63
2023/07/20 09:19:25;;;;;;;1.58;0.20;;;22.30;98.20;;;;;;5088046;28;20044;-63
2023/07/20 09:21:53;;;;;;;0.43;0.10;;;22.10;99.00;;;;;;5053703;28;20036;-63
2023/07/20 09:24:23;;;;;;;1.83;0.20;;;22.10;98.90;;;;;;5088894;28;20036;-63
2023/07/20 09:26:50;;;;;;;1.10;0.25;;;22.10;97.90;;;;;;5054957;28;20052;-63
2023/07/20 09:29:20;;;;;;;0.43;0.10;;;22.20;97.80;;;;;;5071909;28;20044;-63
2023/07/20 09:32:02;;;;;;;;;;;22.30;97.70;;;;;;5089469;28;20043;-62
2023/07/20 09:34:31;;;;;;;0.30;0.15;;;22.30;96.70;;;;;;5089798;28;19920;-63
2023/07/20 09:37:01;;;;;;;0.43;0.22;;;22.80;97.80;;;;;;5070908;28;20097;-63
2023/07/20 09:39:29;;;;;;;0.30;0.15;;;23.40;96.10;;;;;;5072359;28;20447;-62
2023/07/20 09:42:04;;;;;;;0.13;0.10;;;23.90;96.90;;;;;;5085025;28;20036;-62
2023/07/20 09:44:33;;;;;;;1.23;0.20;;;24.30;96.90;;;;;;5095141;28;20058;-63
2023/07/20 09:47:03;;;;;;;0.15;0.05;;;24.30;95.90;;;;;;5094686;28;20469;-63
2023/07/20 09:49:31;;;;;;;0.60;0.30;;;24.20;95.70;;;;;;5061709;28;20036;-63
2023/07/20 09:52:11;;;;;;;0.88;0.20;;;24.00;95.40;;;;;;5113281;28;20487;-63
2023/07/20 09:54:40;;;;;;;0.60;0.20;;;23.90;95.00;;;;;;5090918;28;20035;-63
2023/07/20 09:57:13;;;;;;;0.52;0.28;;;24.20;95.40;;;;;;5095278;28;20035;-63
2023/07/20 09:59:42;;;;;;;0.45;0.10;;;24.40;94.50;;;;;;5067116;28;20062;-63
2023/07/20 10:02:14;;;;;;;;;;;24.80;93.60;;;;;;5075458;28;20040;-62
2023/07/20 10:04:41;;;;;;;1.13;0.20;;;25.20;91.20;;;;;;5075208;28;19916;-63
2023/07/20 10:07:12;;;;;;;0.30;0.10;;;25.20;93.40;;;;;;5073814;28;20052;-62
2023/07/20 10:09:43;;;;;;;0.30;0.28;;;25.00;92.40;;;;;;5092539;28;20051;-63
2023/07/20 10:12:10;;;;;;;0.55;0.10;;;24.90;92.40;;;;;;5091790;28;20060;-64
2023/07/20 10:14:44;;;;;;;0.75;0.38;;;24.90;92.60;;;;;;5091979;28;20543;-63
2023/07/20 10:17:16;;;;;;;0.10;0.10;;;24.90;91.80;;;;;;5092924;28;20119;-63
2023/07/20 10:19:50;;;;;;;0.40;0.10;;;24.90;91.50;;;;;;5074648;28;20040;-63
2023/07/20 10:22:25;;;;;;;0.50;0.20;;;24.80;91.00;;;;;;5091982;28;20055;-63
2023/07/20 10:24:54;;;;;;;0.50;0.10;;;24.70;90.50;;;;;;5057587;28;20044;-63
2023/07/20 10:27:24;;;;;;;0.60;0.10;;;24.60;90.70;;;;;;5056769;28;20048;-63
2023/07/20 10:30:03;;;;;;;0.55;0.30;;;24.80;90.90;;;;;;5082217;28;20118;-63
2023/07/20 10:32:33;;;;;;;0.22;0.10;;;24.80;90.40;;;;;;5112770;28;20073;-63
2023/07/20 10:35:14;;;;;;;0.00;0.00;;;24.50;90.00;;;;;;5053335;28;20072;-63
2023/07/20 10:37:52;;;;;;;0.38;0.10;;;24.60;86.60;;;;;;5066899;28;20037;-63
2023/07/20 10:40:39;;;;;;;1.42;0.28;;;24.80;87.50;;;;;;5074517;28;20052;-64
2023/07/20 10:43:12;;;;;;;0.65;0.10;;;24.70;85.10;;;;;;5070960;28;20040;-63
2023/07/20 10:45:54;;;;;;;0.20;0.10;;;24.20;85.70;;;;;;5057266;28;20470;-63
2023/07/20 10:48:25;;;;;;;0.40;0.10;;;23.80;84.90;;;;;;5056794;28;20051;-63
2023/07/20 10:51:16;;;;;;;1.08;0.10;;;23.40;85.50;;;;;;5055823;28;20028;-62
2023/07/20 10:53:42;;;;;;;0.32;0.10;;;23.10;86.00;;;;;;5089929;28;20495;-63
2023/07/20 10:56:15;;;;;;;0.63;0.20;;;22.80;86.30;;;;;;5079862;28;20374;-63
2023/07/20 10:58:42;;;;;;;0.30;0.15;;;22.60;85.50;;;;;;5037623;28;20044;-63
2023/07/20 11:01:14;;;;;;;1.00;0.30;;;22.40;85.80;;;;;;5090247;28;20048;-62
2023/07/20 11:03:44;;;;;;;0.43;0.30;;;22.30;86.20;;;;;;5079060;28;20070;-63
2023/07/20 11:06:28;;;;;;;1.55;0.20;;;22.40;86.10;;;;;;5088675;28;20044;-62
2023/07/20 11:09:03;;;;;;;;;;;22.30;87.10;;;;;;5071423;28;20036;-63
2023/07/20 11:11:32;;;;;;;0.60;0.10;;;22.30;87.60;;;;;;5056867;28;19927;-62
2023/07/20 11:14:07;;;;;;;0.17;0.10;;;22.30;87.10;;;;;;5073384;28;20070;-63
2023/07/20 11:16:34;;;;;;;1.80;0.40;;;22.50;88.20;;;;;;5091001;28;20110;-62
2023/07/20 11:19:06;;;;;;;0.10;0.10;;;22.60;88.60;;;;;;5091378;28;20046;-63
2023/07/20 11:21:40;;;;;;;0.40;0.30;;;22.80;88.10;;;;;;5091331;28;20051;-62
2023/07/20 11:24:10;;;;;;;1.13;0.30;;;22.90;88.50;;;;;;5072876;28;20047;-62
2023/07/20 11:26:49;;;;;;;0.50;0.20;;;23.00;89.90;;;;;;5056023;28;20056;-62
2023/07/20 11:29:27;;;;;;;2.55;0.20;;;23.20;90.60;;;;;;5073108;28;20036;-63
2023/07/20 11:31:53;;;;;;;0.43;0.10;;;23.60;90.80;;;;;;5072429;28;20063;-62
2023/07/20 11:34:21;;;;;;;1.63;0.28;;;24.00;90.40;;;;;;5072900;28;20068;-63
2023/07/20 11:36:51;;;;;;;3.35;0.35;;;24.30;89.80;;;;;;5055993;28;20043;-63
2023/07/20 11:39:21;;;;;;;0.77;0.38;;;24.30;87.80;;;;;;5091146;28;20072;-62
2023/07/20 11:41:55;;;;;;;0.43;0.20;;;24.30;88.60;;;;;;5056571;28;20077;-63
2023/07/20 11:44:29;;;;;;;0.57;0.10;;;24.40;88.50;;;;;;5090740;28;20067;-63
2023/07/20 11:47:07;;;;;;;0.70;0.38;;;24.40;89.30;;;;;;5072901;28;20040;-64
2023/07/20 11:49:40;;;;;;;1.80;0.63;;;24.50;88.20;;;;;;5072599;28;20076;-63
2023/07/20 11:52:15;;;;;;;1.95;0.10;;;24.50;88.30;;;;;;5068855;28;20047;-63
2023/07/20 11:54:43;;;;;;;0.28;0.10;;;24.50;86.90;;;;;;5071989;28;20051;-63
2023/07/20 11:57:20;;;;;;;0.63;0.20;;;24.20;86.40;;;;;;5056065;28;20373;-63
2023/07/20 12:00:10;;;;;;;0.05;0.05;;;23.90;86.30;;;;;;5065144;28;20070;-63
2023/07/20 12:02:39;;;;;;;1.13;0.10;;;23.60;86.10;;;;;;5092585;28;20511;-62
2023/07/20 12:05:05;;;;;;;0.30;0.20;;;23.40;86.60;;;;;;5075071;28;20044;-63
2023/07/20 12:07:36;;;;;;;0.17;0.10;;;23.30;86.70;;;;;;5092680;28;20301;-62
2023/07/20 12:10:12;;;;;;;0.55;0.20;;;23.30;86.30;;;;;;5092718;28;20043;-63
2023/07/20 12:12:42;;;;;;;0.25;0.10;;;23.20;83.80;;;;;;5059643;28;20039;-62
2023/07/20 12:15:24;;;;;;;0.15;0.15;;;22.80;84.00;;;;;;5052105;28;20481;-62
2023/07/20 12:17:51;;;;;;;0.45;0.13;;;22.50;84.10;;;;;;5035848;28;20180;-64
2023/07/20 12:20:31;;;;;;;0.28;0.20;;;22.20;85.20;;;;;;5052122;28;20090;-63
2023/07/20 12:23:00;;;;;;;0.63;0.10;;;21.80;85.40;;;;;;5071766;28;20555;-64
2023/07/20 12:25:39;;;;;;;1.33;0.22;;;21.50;85.90;;;;;;5048264;28;20136;-62
2023/07/20 12:28:06;;;;;;;0.52;0.10;;;21.30;88.40;;;;;;5048658;28;20049;-63
2023/07/20 12:30:33;;;;;;;0.47;0.10;;;21.30;87.90;;;;;;5058006;28;20036;-64
2023/07/20 12:32:59;;;;;;;0.52;0.13;;;21.20;88.00;;;;;;5051456;28;20037;-63
2023/07/20 12:35:25;;;;;;;0.38;0.13;;;21.30;87.80;;;;;;5052528;28;20059;-62
2023/07/20 12:37:51;;;;;;;0.98;0.25;;;21.40;88.40;;;;;;5035576;28;20052;-63
2023/07/20 12:40:17;;;;;;;1.25;0.40;;;21.80;86.80;;;;;;5069342;28;20558;-62
2023/07/20 12:42:44;;;;;;;0.43;0.15;;;21.90;85.90;;;;;;5052264;28;20090;-62
2023/07/20 12:45:13;;;;;;;0.43;0.17;;;22.10;87.00;;;;;;5070133;28;20045;-63
2023/07/20 12:47:41;;;;;;;0.55;0.28;;;22.20;86.00;;;;;;5049973;28;20036;-62
2023/07/20 12:50:07;;;;;;;0.30;0.10;;;22.40;85.30;;;;;;5032500;28;20053;-63
2023/07/20 12:52:38;;;;;;;0.43;0.10;;;22.70;84.90;;;;;;5015684;28;20041;-63
2023/07/20 12:55:10;;;;;;;0.52;0.13;;;23.00;84.00;;;;;;5031672;28;20436;-63